sensor_id;sensor_type;location;lat;lon;timestamp;pressure;altitude;pressure_sealevel;temperature;humidity
55424;BME280;41294;42.666;23.350;2023-03-17T00:09:18;95187.09;;;3.70;100.00
55424;BME280;41294;42.666;23.350;2023-03-17T01:03:38;95193.03;;;3.71;100.00
55424;BME280;41294;42.666;23.350;2023-03-17T01:06:05;95189.53;;;3.84;100.00
55424;BME280;41294;42.666;23.350;2023-03-17T01:08:32;95193.06;;;3.67;100.00
55424;BME280;41294;42.666;23.350;2023-03-17T01:10:57;95200.75;;;3.78;100.00
55424;BME280;41294;42.666;23.350;2023-03-17T01:13:24;95191.78;;;3.82;100.00
55424;BME280;41294;42.666;23.350;2023-03-17T01:15:50;95202.06;;;3.59;100.00
55424;BME280;41294;42.666;23.350;2023-03-17T01:18:18;95196.38;;;3.71;100.00
55424;BME280;41294;42.666;23.350;2023-03-17T01:20:44;95198.91;;;3.78;100.00
55424;BME280;41294;42.666;23.350;2023-03-17T01:23:10;95194.53;;;3.68;100.00
55424;BME280;41294;42.666;23.350;2023-03-17T01:25:37;95197.00;;;3.82;100.00
55424;BME280;41294;42.666;23.350;2023-03-17T01:28:04;95200.75;;;3.78;100.00
55424;BME280;41294;42.666;23.350;2023-03-17T01:30:35;95194.41;;;3.82;100.00
55424;BME280;41294;42.666;23.350;2023-03-17T01:33:03;95207.81;;;3.81;100.00
55424;BME280;41294;42.666;23.350;2023-03-17T01:35:29;95198.91;;;3.78;100.00
55424;BME280;41294;42.666;23.350;2023-03-17T01:37:56;95201.03;;;3.87;100.00
55424;BME280;41294;42.666;23.350;2023-03-17T01:40:27;95204.03;;;3.85;100.00
55424;BME280;41294;42.666;23.350;2023-03-17T01:54:31;95205.66;;;3.72;100.00
55424;BME280;41294;42.666;23.350;2023-03-17T01:57:03;95204.19;;;3.71;100.00
55424;BME280;41294;42.666;23.350;2023-03-17T01:59:35;95205.25;;;3.77;100.00
55424;BME280;41294;42.666;23.350;2023-03-17T02:02:05;95212.63;;;3.82;100.00
55424;BME280;41294;42.666;23.350;2023-03-17T02:04:33;95218.72;;;3.65;100.00
55424;BME280;41294;42.666;23.350;2023-03-17T02:07:00;95215.56;;;3.84;100.00
55424;BME280;41294;42.666;23.350;2023-03-17T02:09:28;95216.78;;;3.76;100.00
55424;BME280;41294;42.666;23.350;2023-03-17T02:11:54;95214.84;;;3.84;100.00
55424;BME280;41294;42.666;23.350;2023-03-17T02:14:20;95212.53;;;3.93;100.00
55424;BME280;41294;42.666;23.350;2023-03-17T02:16:45;95224.09;;;3.88;100.00
55424;BME280;41294;42.666;23.350;2023-03-17T02:19:11;95219.25;;;3.90;100.00
55424;BME280;41294;42.666;23.350;2023-03-17T02:21:41;95221.09;;;3.90;100.00
55424;BME280;41294;42.666;23.350;2023-03-17T02:24:11;95221.97;;;3.76;100.00
55424;BME280;41294;42.666;23.350;2023-03-17T02:26:37;95213.03;;;3.77;100.00
55424;BME280;41294;42.666;23.350;2023-03-17T02:29:03;95222.69;;;3.80;100.00
55424;BME280;41294;42.666;23.350;2023-03-17T02:31:30;95221.22;;;3.79;100.00
55424;BME280;41294;42.666;23.350;2023-03-17T02:33:55;95230.16;;;3.78;100.00
55424;BME280;41294;42.666;23.350;2023-03-17T02:36:21;95233.44;;;3.82;100.00
55424;BME280;41294;42.666;23.350;2023-03-17T02:38:46;95228.66;;;3.77;100.00
55424;BME280;41294;42.666;23.350;2023-03-17T02:41:12;95234.31;;;3.69;100.00
55424;BME280;41294;42.666;23.350;2023-03-17T02:43:37;95242.06;;;3.76;100.00
55424;BME280;41294;42.666;23.350;2023-03-17T02:46:03;95243.81;;;3.89;100.00
55424;BME280;41294;42.666;23.350;2023-03-17T02:48:30;95240.38;;;3.96;100.00
55424;BME280;41294;42.666;23.350;2023-03-17T02:50:56;95246.72;;;3.95;100.00
55424;BME280;41294;42.666;23.350;2023-03-17T02:53:21;95244.84;;;3.95;100.00
55424;BME280;41294;42.666;23.350;2023-03-17T02:55:46;95252.38;;;3.86;100.00
55424;BME280;41294;42.666;23.350;2023-03-17T02:58:12;95250.66;;;3.73;100.00
55424;BME280;41294;42.666;23.350;2023-03-17T03:00:37;95248.66;;;3.87;100.00
55424;BME280;41294;42.666;23.350;2023-03-17T03:03:05;95251.25;;;3.87;100.00
55424;BME280;41294;42.666;23.350;2023-03-17T03:05:30;95244.94;;;3.88;100.00
55424;BME280;41294;42.666;23.350;2023-03-17T03:07:56;95253.28;;;3.69;100.00
55424;BME280;41294;42.666;23.350;2023-03-17T03:10:21;95242.50;;;3.67;100.00
55424;BME280;41294;42.666;23.350;2023-03-17T03:12:47;95256.88;;;3.82;100.00
55424;BME280;41294;42.666;23.350;2023-03-17T03:15:12;95253.94;;;3.80;100.00
55424;BME280;41294;42.666;23.350;2023-03-17T03:17:38;95258.34;;;3.83;100.00
55424;BME280;41294;42.666;23.350;2023-03-17T03:20:04;95256.88;;;3.82;100.00
55424;BME280;41294;42.666;23.350;2023-03-17T03:22:29;95260.66;;;3.74;100.00
55424;BME280;41294;42.666;23.350;2023-03-17T03:24:55;95270.50;;;3.53;100.00
55424;BME280;41294;42.666;23.350;2023-03-17T03:27:20;95259.34;;;3.56;100.00
55424;BME280;41294;42.666;23.350;2023-03-17T03:29:46;95269.25;;;3.71;100.00
55424;BME280;41294;42.666;23.350;2023-03-17T03:32:11;95275.16;;;3.75;100.00
55424;BME280;41294;42.666;23.350;2023-03-17T03:34:37;95270.38;;;3.70;100.00
55424;BME280;41294;42.666;23.350;2023-03-17T03:37:02;95280.84;;;3.60;100.00
55424;BME280;41294;42.666;23.350;2023-03-17T03:39:28;95275.63;;;3.67;100.00
55424;BME280;41294;42.666;23.350;2023-03-17T03:41:53;95271.84;;;3.71;100.00
55424;BME280;41294;42.666;23.350;2023-03-17T03:44:22;95275.19;;;3.72;100.00
55424;BME280;41294;42.666;23.350;2023-03-17T03:46:48;95272.16;;;3.80;100.00
55424;BME280;41294;42.666;23.350;2023-03-17T03:49:13;95278.84;;;3.81;100.00
55424;BME280;41294;42.666;23.350;2023-03-17T03:51:39;95285.09;;;3.87;100.00
55424;BME280;41294;42.666;23.350;2023-03-17T03:54:04;95285.81;;;3.88;100.00
55424;BME280;41294;42.666;23.350;2023-03-17T03:56:30;95282.09;;;3.89;100.00
55424;BME280;41294;42.666;23.350;2023-03-17T03:58:55;95286.59;;;3.88;100.00
55424;BME280;41294;42.666;23.350;2023-03-17T04:01:21;95292.56;;;3.85;100.00
55424;BME280;41294;42.666;23.350;2023-03-17T04:03:46;95286.28;;;3.79;100.00
55424;BME280;41294;42.666;23.350;2023-03-17T04:06:12;95292.63;;;3.78;100.00
55424;BME280;41294;42.666;23.350;2023-03-17T04:08:37;95293.34;;;3.79;100.00
55424;BME280;41294;42.666;23.350;2023-03-17T04:11:02;95293.22;;;3.96;100.00
55424;BME280;41294;42.666;23.350;2023-03-17T04:13:28;95297.00;;;3.88;100.00
55424;BME280;41294;42.666;23.350;2023-03-17T04:15:53;95299.97;;;3.90;100.00
55424;BME280;41294;42.666;23.350;2023-03-17T04:18:19;95305.91;;;3.91;100.00
55424;BME280;41294;42.666;23.350;2023-03-17T04:20:44;95311.88;;;3.88;100.00
55424;BME280;41294;42.666;23.350;2023-03-17T04:23:10;95309.63;;;3.90;100.00
55424;BME280;41294;42.666;23.350;2023-03-17T04:25:37;95318.53;;;3.92;100.00
55424;BME280;41294;42.666;23.350;2023-03-17T04:28:03;95320.38;;;3.95;100.00
55424;BME280;41294;42.666;23.350;2023-03-17T04:30:29;95327.44;;;3.91;100.00
55424;BME280;41294;42.666;23.350;2023-03-17T04:32:54;95318.16;;;3.94;100.00
55424;BME280;41294;42.666;23.350;2023-03-17T04:35:20;95314.84;;;3.86;100.00
55424;BME280;41294;42.666;23.350;2023-03-17T04:37:49;95324.88;;;3.88;100.00
55424;BME280;41294;42.666;23.350;2023-03-17T04:40:16;95320.00;;;3.93;100.00
55424;BME280;41294;42.666;23.350;2023-03-17T04:42:42;95314.72;;;4.00;100.00
55424;BME280;41294;42.666;23.350;2023-03-17T04:45:09;95316.56;;;4.03;100.00
55424;BME280;41294;42.666;23.350;2023-03-17T04:47:35;95321.44;;;3.98;100.00
55424;BME280;41294;42.666;23.350;2023-03-17T04:50:08;95320.66;;;4.04;100.00
55424;BME280;41294;42.666;23.350;2023-03-17T04:52:35;95338.53;;;4.02;100.00
55424;BME280;41294;42.666;23.350;2023-03-17T04:55:01;95338.84;;;4.07;100.00
55424;BME280;41294;42.666;23.350;2023-03-17T04:57:26;95338.19;;;3.97;100.00
55424;BME280;41294;42.666;23.350;2023-03-17T04:59:52;95335.81;;;4.16;100.00
55424;BME280;41294;42.666;23.350;2023-03-17T05:02:17;95333.22;;;4.12;100.00
55424;BME280;41294;42.666;23.350;2023-03-17T05:04:44;95334.59;;;4.27;99.42
55424;BME280;41294;42.666;23.350;2023-03-17T05:07:10;95333.50;;;4.25;98.66
55424;BME280;41294;42.666;23.350;2023-03-17T05:09:36;95348.13;;;4.12;99.20
55424;BME280;41294;42.666;23.350;2023-03-17T05:12:02;95351.75;;;4.21;99.13
55424;BME280;41294;42.666;23.350;2023-03-17T05:14:27;95360.31;;;4.22;99.10
55424;BME280;41294;42.666;23.350;2023-03-17T05:16:53;95363.63;;;4.22;98.64
55424;BME280;41294;42.666;23.350;2023-03-17T05:19:18;95367.75;;;4.20;99.11
55424;BME280;41294;42.666;23.350;2023-03-17T05:21:43;95364.41;;;4.23;98.92
55424;BME280;41294;42.666;23.350;2023-03-17T05:24:09;95372.56;;;4.21;98.74
55424;BME280;41294;42.666;23.350;2023-03-17T05:26:36;95379.56;;;4.31;98.42
55424;BME280;41294;42.666;23.350;2023-03-17T05:29:02;95375.50;;;4.27;97.98
55424;BME280;41294;42.666;23.350;2023-03-17T05:31:28;95385.25;;;4.23;98.29
55424;BME280;41294;42.666;23.350;2023-03-17T05:33:55;95382.94;;;4.32;97.36
55424;BME280;41294;42.666;23.350;2023-03-17T05:36:20;95382.13;;;4.35;97.28
55424;BME280;41294;42.666;23.350;2023-03-17T05:38:46;95385.47;;;4.39;97.11
55424;BME280;41294;42.666;23.350;2023-03-17T05:41:12;95378.25;;;4.13;98.38
55424;BME280;41294;42.666;23.350;2023-03-17T05:43:37;95380.53;;;4.07;98.61
55424;BME280;41294;42.666;23.350;2023-03-17T05:46:03;95390.50;;;4.16;98.28
55424;BME280;41294;42.666;23.350;2023-03-17T05:48:30;95386.06;;;4.13;98.53
55424;BME280;41294;42.666;23.350;2023-03-17T05:50:55;95392.56;;;4.35;97.34
55424;BME280;41294;42.666;23.350;2023-03-17T05:53:21;95386.97;;;4.36;97.89
55424;BME280;41294;42.666;23.350;2023-03-17T05:55:46;95391.69;;;4.48;97.66
55424;BME280;41294;42.666;23.350;2023-03-17T05:58:12;95395.50;;;4.40;97.13
55424;BME280;41294;42.666;23.350;2023-03-17T06:00:40;95400.66;;;4.44;96.50
55424;BME280;41294;42.666;23.350;2023-03-17T06:03:06;95401.00;;;4.49;96.35
55424;BME280;41294;42.666;23.350;2023-03-17T06:05:32;95397.66;;;4.49;97.01
55424;BME280;41294;42.666;23.350;2023-03-17T06:07:58;95407.66;;;4.54;96.66
55424;BME280;41294;42.666;23.350;2023-03-17T06:10:23;95414.38;;;4.51;96.69
55424;BME280;41294;42.666;23.350;2023-03-17T06:12:49;95427.28;;;4.65;96.90
55424;BME280;41294;42.666;23.350;2023-03-17T06:15:15;95418.69;;;4.68;96.64
55424;BME280;41294;42.666;23.350;2023-03-17T06:17:41;95424.19;;;4.77;95.80
55424;BME280;41294;42.666;23.350;2023-03-17T06:20:08;95431.16;;;4.87;95.21
55424;BME280;41294;42.666;23.350;2023-03-17T06:22:33;95437.47;;;4.89;95.13
55424;BME280;41294;42.666;23.350;2023-03-17T06:24:59;95437.69;;;4.69;96.03
55424;BME280;41294;42.666;23.350;2023-03-17T06:27:25;95439.94;;;4.67;96.46
55424;BME280;41294;42.666;23.350;2023-03-17T06:29:52;95442.06;;;4.75;96.46
55424;BME280;41294;42.666;23.350;2023-03-17T06:32:18;95429.66;;;4.89;94.82
55424;BME280;41294;42.666;23.350;2023-03-17T06:34:43;95446.66;;;5.04;94.36
55424;BME280;41294;42.666;23.350;2023-03-17T06:37:09;95439.81;;;5.14;93.96
55424;BME280;41294;42.666;23.350;2023-03-17T06:39:35;95443.47;;;5.20;93.80
55424;BME280;41294;42.666;23.350;2023-03-17T06:42:02;95443.13;;;5.18;94.12
55424;BME280;41294;42.666;23.350;2023-03-17T06:44:27;95443.78;;;5.25;94.38
55424;BME280;41294;42.666;23.350;2023-03-17T06:46:52;95447.16;;;5.26;94.47
55424;BME280;41294;42.666;23.350;2023-03-17T06:49:18;95448.50;;;5.37;94.15
55424;BME280;41294;42.666;23.350;2023-03-17T06:51:43;95440.59;;;5.44;92.44
55424;BME280;41294;42.666;23.350;2023-03-17T06:54:09;95448.78;;;5.46;91.97
55424;BME280;41294;42.666;23.350;2023-03-17T06:56:35;95449.94;;;5.42;92.13
55424;BME280;41294;42.666;23.350;2023-03-17T06:59:00;95450.34;;;5.37;91.31
55424;BME280;41294;42.666;23.350;2023-03-17T07:01:26;95457.84;;;5.35;92.21
55424;BME280;41294;42.666;23.350;2023-03-17T07:03:52;95452.06;;;5.50;92.50
55424;BME280;41294;42.666;23.350;2023-03-17T07:06:17;95454.88;;;5.63;91.28
55424;BME280;41294;42.666;23.350;2023-03-17T07:08:43;95451.16;;;5.64;90.01
55424;BME280;41294;42.666;23.350;2023-03-17T07:11:08;95465.91;;;5.47;91.09
55424;BME280;41294;42.666;23.350;2023-03-17T07:13:34;95457.72;;;5.75;90.97
55424;BME280;41294;42.666;23.350;2023-03-17T07:16:02;95463.97;;;5.84;90.33
55424;BME280;41294;42.666;23.350;2023-03-17T07:18:28;95457.91;;;5.91;89.80
55424;BME280;41294;42.666;23.350;2023-03-17T07:21:00;95467.47;;;5.71;89.87
55424;BME280;41294;42.666;23.350;2023-03-17T07:23:28;95458.09;;;5.77;90.42
55424;BME280;41294;42.666;23.350;2023-03-17T07:25:54;95464.63;;;5.92;89.77
55424;BME280;41294;42.666;23.350;2023-03-17T07:28:22;95461.34;;;6.11;89.92
55424;BME280;41294;42.666;23.350;2023-03-17T07:30:48;95462.34;;;6.20;89.47
55424;BME280;41294;42.666;23.350;2023-03-17T07:33:16;95469.09;;;6.18;88.71
55424;BME280;41294;42.666;23.350;2023-03-17T07:35:42;95468.16;;;6.31;88.33
55424;BME280;41294;42.666;23.350;2023-03-17T07:38:09;95463.25;;;6.33;87.56
55424;BME280;41294;42.666;23.350;2023-03-17T07:40:35;95459.78;;;6.40;85.73
55424;BME280;41294;42.666;23.350;2023-03-17T07:43:01;95473.44;;;6.51;84.67
55424;BME280;41294;42.666;23.350;2023-03-17T07:45:27;95476.19;;;6.44;85.33
55424;BME280;41294;42.666;23.350;2023-03-17T07:47:52;95475.00;;;6.48;84.74
55424;BME280;41294;42.666;23.350;2023-03-17T07:50:18;95481.22;;;6.31;84.69
55424;BME280;41294;42.666;23.350;2023-03-17T07:52:44;95476.50;;;6.46;83.86
55424;BME280;41294;42.666;23.350;2023-03-17T07:55:10;95479.31;;;6.58;81.62
55424;BME280;41294;42.666;23.350;2023-03-17T07:57:37;95475.88;;;6.61;82.59
55424;BME280;41294;42.666;23.350;2023-03-17T08:00:04;95484.81;;;6.86;80.27
55424;BME280;41294;42.666;23.350;2023-03-17T08:02:34;95488.09;;;6.90;80.72
55424;BME280;41294;42.666;23.350;2023-03-17T08:05:00;95485.72;;;6.76;82.05
55424;BME280;41294;42.666;23.350;2023-03-17T08:07:27;95496.06;;;6.83;81.60
55424;BME280;41294;42.666;23.350;2023-03-17T08:09:53;95481.72;;;6.91;80.60
55424;BME280;41294;42.666;23.350;2023-03-17T08:12:19;95489.41;;;6.79;80.99
55424;BME280;41294;42.666;23.350;2023-03-17T08:14:44;95489.00;;;6.80;81.45
55424;BME280;41294;42.666;23.350;2023-03-17T08:17:10;95492.94;;;6.92;80.06
55424;BME280;41294;42.666;23.350;2023-03-17T08:19:35;95483.16;;;7.15;79.39
55424;BME280;41294;42.666;23.350;2023-03-17T08:22:01;95486.75;;;7.05;80.59
55424;BME280;41294;42.666;23.350;2023-03-17T08:24:26;95488.97;;;7.26;80.52
55424;BME280;41294;42.666;23.350;2023-03-17T08:26:52;95490.03;;;7.29;79.95
55424;BME280;41294;42.666;23.350;2023-03-17T08:29:17;95484.63;;;7.39;80.04
55424;BME280;41294;42.666;23.350;2023-03-17T08:31:43;95484.75;;;7.32;78.46
55424;BME280;41294;42.666;23.350;2023-03-17T08:34:09;95485.63;;;7.45;78.26
55424;BME280;41294;42.666;23.350;2023-03-17T08:36:34;95482.78;;;7.36;78.24
55424;BME280;41294;42.666;23.350;2023-03-17T08:39:00;95480.09;;;7.39;77.48
55424;BME280;41294;42.666;23.350;2023-03-17T08:41:26;95482.88;;;7.32;76.36
55424;BME280;41294;42.666;23.350;2023-03-17T08:43:53;95487.09;;;7.27;77.00
55424;BME280;41294;42.666;23.350;2023-03-17T08:46:21;95485.75;;;7.38;76.58
55424;BME280;41294;42.666;23.350;2023-03-17T08:48:49;95483.06;;;7.41;76.10
55424;BME280;41294;42.666;23.350;2023-03-17T08:51:17;95487.03;;;7.49;75.15
55424;BME280;41294;42.666;23.350;2023-03-17T08:53:43;95489.50;;;7.18;76.97
55424;BME280;41294;42.666;23.350;2023-03-17T08:56:09;95489.44;;;7.21;78.02
55424;BME280;41294;42.666;23.350;2023-03-17T08:58:36;95483.47;;;7.40;77.08
55424;BME280;41294;42.666;23.350;2023-03-17T09:01:04;95483.41;;;7.63;75.70
55424;BME280;41294;42.666;23.350;2023-03-17T09:03:31;95488.22;;;7.84;75.91
55424;BME280;41294;42.666;23.350;2023-03-17T09:05:57;95485.72;;;7.77;74.83
55424;BME280;41294;42.666;23.350;2023-03-17T09:08:24;95487.91;;;7.98;74.35
55424;BME280;41294;42.666;23.350;2023-03-17T09:10:50;95495.59;;;7.89;73.02
55424;BME280;41294;42.666;23.350;2023-03-17T09:13:16;95478.22;;;7.95;74.17
55424;BME280;41294;42.666;23.350;2023-03-17T09:15:43;95496.50;;;8.18;72.55
55424;BME280;41294;42.666;23.350;2023-03-17T09:18:08;95486.84;;;8.30;71.80
55424;BME280;41294;42.666;23.350;2023-03-17T09:20:34;95487.00;;;8.23;70.31
55424;BME280;41294;42.666;23.350;2023-03-17T09:23:04;95494.28;;;8.16;71.51
55424;BME280;41294;42.666;23.350;2023-03-17T09:25:33;95488.81;;;8.42;71.79
55424;BME280;41294;42.666;23.350;2023-03-17T09:27:59;95491.13;;;8.56;71.64
55424;BME280;41294;42.666;23.350;2023-03-17T09:30:24;95486.88;;;8.62;69.59
55424;BME280;41294;42.666;23.350;2023-03-17T09:32:51;95482.50;;;8.72;68.46
55424;BME280;41294;42.666;23.350;2023-03-17T09:35:17;95484.72;;;8.73;68.45
55424;BME280;41294;42.666;23.350;2023-03-17T09:37:42;95486.03;;;8.65;68.41
55424;BME280;41294;42.666;23.350;2023-03-17T09:40:11;95484.06;;;8.69;69.84
55424;BME280;41294;42.666;23.350;2023-03-17T09:45:28;95497.69;;;8.64;69.05
55424;BME280;41294;42.666;23.350;2023-03-17T09:53:16;95493.91;;;8.65;67.55
55424;BME280;41294;42.666;23.350;2023-03-17T09:55:43;95501.84;;;8.46;69.04
55424;BME280;41294;42.666;23.350;2023-03-17T09:58:11;95495.81;;;8.33;68.01
55424;BME280;41294;42.666;23.350;2023-03-17T10:00:37;95492.50;;;8.29;69.67
55424;BME280;41294;42.666;23.350;2023-03-17T10:03:09;95497.38;;;8.62;68.95
55424;BME280;41294;42.666;23.350;2023-03-17T10:05:35;95503.91;;;8.70;67.30
55424;BME280;41294;42.666;23.350;2023-03-17T10:08:18;95499.81;;;8.69;67.94
55424;BME280;41294;42.666;23.350;2023-03-17T10:13:53;95501.63;;;8.88;66.42
55424;BME280;41294;42.666;23.350;2023-03-17T10:16:46;95494.06;;;8.90;67.14
55424;BME280;41294;42.666;23.350;2023-03-17T10:19:41;95494.69;;;9.10;66.16
55424;BME280;41294;42.666;23.350;2023-03-17T10:22:18;95491.97;;;9.13;65.76
55424;BME280;41294;42.666;23.350;2023-03-17T10:24:49;95495.44;;;9.10;65.97
55424;BME280;41294;42.666;23.350;2023-03-17T10:27:17;95492.13;;;9.06;65.47
55424;BME280;41294;42.666;23.350;2023-03-17T10:29:42;95496.88;;;9.27;64.88
55424;BME280;41294;42.666;23.350;2023-03-17T10:32:10;95486.69;;;9.29;64.16
55424;BME280;41294;42.666;23.350;2023-03-17T10:34:37;95492.63;;;9.17;65.83
55424;BME280;41294;42.666;23.350;2023-03-17T10:39:31;95488.22;;;9.43;63.45
55424;BME280;41294;42.666;23.350;2023-03-17T10:42:11;95486.88;;;9.51;61.29
55424;BME280;41294;42.666;23.350;2023-03-17T10:49:58;95482.19;;;9.14;58.33
55424;BME280;41294;42.666;23.350;2023-03-17T10:52:30;95482.94;;;8.70;59.58
55424;BME280;41294;42.666;23.350;2023-03-17T10:55:03;95474.97;;;8.58;61.87
55424;BME280;41294;42.666;23.350;2023-03-17T10:57:30;95469.81;;;8.70;62.90
55424;BME280;41294;42.666;23.350;2023-03-17T10:59:56;95464.03;;;8.91;61.79
55424;BME280;41294;42.666;23.350;2023-03-17T11:02:35;95463.09;;;8.02;62.03
55424;BME280;41294;42.666;23.350;2023-03-17T11:05:21;95456.63;;;7.91;64.25
55424;BME280;41294;42.666;23.350;2023-03-17T11:07:47;95446.84;;;8.58;62.64
55424;BME280;41294;42.666;23.350;2023-03-17T11:10:23;95449.53;;;8.71;60.64
55424;BME280;41294;42.666;23.350;2023-03-17T11:12:56;95445.91;;;9.25;61.46
55424;BME280;41294;42.666;23.350;2023-03-17T11:15:31;95441.06;;;9.77;61.58
55424;BME280;41294;42.666;23.350;2023-03-17T11:18:00;95441.50;;;9.87;60.57
55424;BME280;41294;42.666;23.350;2023-03-17T11:20:41;95436.81;;;10.07;60.68
55424;BME280;41294;42.666;23.350;2023-03-17T11:26:38;95443.53;;;10.08;57.41
55424;BME280;41294;42.666;23.350;2023-03-17T11:37:02;95432.56;;;10.47;56.12
55424;BME280;41294;42.666;23.350;2023-03-17T11:47:35;95430.72;;;11.03;55.87
55424;BME280;41294;42.666;23.350;2023-03-17T11:52:47;95431.41;;;11.37;54.31
55424;BME280;41294;42.666;23.350;2023-03-17T12:00:33;95427.72;;;10.92;53.84
55424;BME280;41294;42.666;23.350;2023-03-17T12:05:39;95417.69;;;11.21;53.92
55424;BME280;41294;42.666;23.350;2023-03-17T12:08:11;95416.38;;;11.46;53.79
55424;BME280;41294;42.666;23.350;2023-03-17T12:10:46;95417.91;;;11.78;52.92
55424;BME280;41294;42.666;23.350;2023-03-17T12:13:24;95414.34;;;12.02;52.27
55424;BME280;41294;42.666;23.350;2023-03-17T12:15:59;95414.97;;;12.06;51.47
55424;BME280;41294;42.666;23.350;2023-03-17T12:22:05;95403.53;;;12.09;51.17
55424;BME280;41294;42.666;23.350;2023-03-17T12:24:17;95408.81;;;11.79;49.96
55424;BME280;41294;42.666;23.350;2023-03-17T12:27:27;95408.16;;;9.60;54.68
55424;BME280;41294;42.666;23.350;2023-03-17T12:30:01;95404.00;;;9.34;55.93
55424;BME280;41294;42.666;23.350;2023-03-17T12:35:30;95406.41;;;9.00;55.58
55424;BME280;41294;42.666;23.350;2023-03-17T12:38:01;95403.03;;;9.28;55.61
55424;BME280;41294;42.666;23.350;2023-03-17T12:43:38;95398.03;;;10.45;53.63
55424;BME280;41294;42.666;23.350;2023-03-17T12:52:21;95397.63;;;11.23;52.28
55424;BME280;41294;42.666;23.350;2023-03-17T12:54:51;95398.97;;;10.85;51.11
55424;BME280;41294;42.666;23.350;2023-03-17T12:57:26;95401.88;;;10.19;53.74
55424;BME280;41294;42.666;23.350;2023-03-17T13:00:03;95405.75;;;10.27;54.65
55424;BME280;41294;42.666;23.350;2023-03-17T13:02:37;95402.78;;;10.38;54.48
55424;BME280;41294;42.666;23.350;2023-03-17T13:05:08;95397.44;;;10.16;54.65
55424;BME280;41294;42.666;23.350;2023-03-17T13:07:51;95399.28;;;9.54;57.50
55424;BME280;41294;42.666;23.350;2023-03-17T13:10:40;95398.63;;;9.25;59.66
55424;BME280;41294;42.666;23.350;2023-03-17T13:13:09;95403.97;;;8.93;61.42
55424;BME280;41294;42.666;23.350;2023-03-17T13:23:44;95402.41;;;9.24;58.55
55424;BME280;41294;42.666;23.350;2023-03-17T13:26:11;95398.28;;;9.10;57.51
55424;BME280;41294;42.666;23.350;2023-03-17T13:31:14;95397.50;;;8.53;58.80
55424;BME280;41294;42.666;23.350;2023-03-17T13:33:55;95397.50;;;9.10;57.81
55424;BME280;41294;42.666;23.350;2023-03-17T13:36:35;95402.94;;;8.46;58.67
55424;BME280;41294;42.666;23.350;2023-03-17T13:47:39;95412.84;;;8.83;58.37
55424;BME280;41294;42.666;23.350;2023-03-17T13:50:12;95416.84;;;8.59;58.07
55424;BME280;41294;42.666;23.350;2023-03-17T13:52:47;95400.81;;;8.25;60.31
55424;BME280;41294;42.666;23.350;2023-03-17T14:00:33;95403.91;;;8.36;60.01
55424;BME280;41294;42.666;23.350;2023-03-17T14:03:07;95400.28;;;8.62;61.12
55424;BME280;41294;42.666;23.350;2023-03-17T14:05:36;95407.22;;;8.69;59.20
55424;BME280;41294;42.666;23.350;2023-03-17T14:08:26;95398.44;;;8.75;59.39
55424;BME280;41294;42.666;23.350;2023-03-17T14:10:56;95406.28;;;9.19;58.74
55424;BME280;41294;42.666;23.350;2023-03-17T14:13:37;95402.53;;;9.33;59.33
55424;BME280;41294;42.666;23.350;2023-03-17T14:16:25;95408.56;;;9.17;59.79
55424;BME280;41294;42.666;23.350;2023-03-17T14:18:58;95417.59;;;8.28;60.23
55424;BME280;41294;42.666;23.350;2023-03-17T14:21:30;95411.19;;;8.13;60.92
55424;BME280;41294;42.666;23.350;2023-03-17T14:24:00;95411.38;;;8.22;60.81
55424;BME280;41294;42.666;23.350;2023-03-17T14:26:28;95418.69;;;7.79;61.90
55424;BME280;41294;42.666;23.350;2023-03-17T14:28:58;95414.09;;;7.83;61.31
55424;BME280;41294;42.666;23.350;2023-03-17T14:31:27;95411.91;;;7.98;62.01
55424;BME280;41294;42.666;23.350;2023-03-17T14:33:55;95420.66;;;7.91;61.91
55424;BME280;41294;42.666;23.350;2023-03-17T14:36:22;95420.00;;;7.87;62.36
55424;BME280;41294;42.666;23.350;2023-03-17T14:38:53;95416.34;;;8.01;62.80
55424;BME280;41294;42.666;23.350;2023-03-17T14:41:25;95413.41;;;8.30;61.83
55424;BME280;41294;42.666;23.350;2023-03-17T14:43:55;95427.53;;;7.85;62.82
55424;BME280;41294;42.666;23.350;2023-03-17T14:48:57;95412.47;;;7.89;62.96
55424;BME280;41294;42.666;23.350;2023-03-17T14:51:31;95420.38;;;7.70;61.90
55424;BME280;41294;42.666;23.350;2023-03-17T14:54:03;95414.25;;;7.76;61.97
55424;BME280;41294;42.666;23.350;2023-03-17T14:56:56;95412.59;;;7.66;60.89
55424;BME280;41294;42.666;23.350;2023-03-17T14:59:42;95412.50;;;7.70;61.69
55424;BME280;41294;42.666;23.350;2023-03-17T15:02:26;95416.03;;;7.63;61.06
55424;BME280;41294;42.666;23.350;2023-03-17T15:04:57;95423.81;;;7.47;62.20
55424;BME280;41294;42.666;23.350;2023-03-17T15:07:41;95427.88;;;7.32;64.06
55424;BME280;41294;42.666;23.350;2023-03-17T15:10:21;95429.56;;;7.23;63.95
55424;BME280;41294;42.666;23.350;2023-03-17T15:12:47;95427.66;;;7.43;63.73
55424;BME280;41294;42.666;23.350;2023-03-17T15:15:24;95435.25;;;7.18;64.53
55424;BME280;41294;42.666;23.350;2023-03-17T15:17:55;95436.59;;;6.87;64.00
55424;BME280;41294;42.666;23.350;2023-03-17T15:20:22;95448.28;;;7.02;63.46
55424;BME280;41294;42.666;23.350;2023-03-17T15:22:58;95439.16;;;7.30;63.40
55424;BME280;41294;42.666;23.350;2023-03-17T15:25:25;95441.97;;;7.38;63.36
55424;BME280;41294;42.666;23.350;2023-03-17T15:27:51;95440.09;;;7.39;63.39
55424;BME280;41294;42.666;23.350;2023-03-17T15:30:17;95451.50;;;7.48;63.03
55424;BME280;41294;42.666;23.350;2023-03-17T15:32:44;95451.38;;;7.17;63.74
55424;BME280;41294;42.666;23.350;2023-03-17T15:35:14;95454.91;;;6.87;63.86
55424;BME280;41294;42.666;23.350;2023-03-17T15:37:39;95455.97;;;6.90;65.13
55424;BME280;41294;42.666;23.350;2023-03-17T15:40:06;95463.25;;;7.02;65.04
55424;BME280;41294;42.666;23.350;2023-03-17T15:42:35;95456.41;;;7.08;64.71
55424;BME280;41294;42.666;23.350;2023-03-17T15:45:02;95461.34;;;7.02;65.49
55424;BME280;41294;42.666;23.350;2023-03-17T15:47:31;95463.50;;;7.07;65.42